Time;durP1;ratioP1;P1;durP2;ratioP2;P2;SDS_P1;SDS_P2;PMS_P1;PMS_P2;Temp;Humidity;BMP_temperature;BMP_pressure;BME280_temperature;BME280_humidity;BME280_pressure;Samples;Min_cycle;Max_cycle;Signal;HPM_P1;HPM_P2
2024/01/23 00:00:16;;;;;;;6.25;5.75;;;;;;;;;;5046487;28;20033;-74
2024/01/23 00:02:43;;;;;;;9.50;8.48;;;;;;;;;;5046815;28;20036;-74
2024/01/23 00:05:09;;;;;;;8.13;6.40;;;;;;;;;;5046710;28;20530;-72
2024/01/23 00:07:35;;;;;;;7.10;6.50;;;;;;;;;;5028681;28;20037;-72
2024/01/23 00:10:01;;;;;;;7.45;6.72;;;;;;;;;;5046128;28;20040;-73
2024/01/23 00:12:28;;;;;;;9.23;8.32;;;;;;;;;;5047835;28;20041;-74
2024/01/23 00:14:54;;;;;;;7.75;6.80;;;;;;;;;;5027219;28;20094;-73
2024/01/23 00:17:20;;;;;;;8.45;7.57;;;;;;;;;;5028609;28;20029;-73
2024/01/23 00:19:47;;;;;;;8.30;7.50;;;;;;;;;;5046272;28;20029;-73
2024/01/23 00:22:13;;;;;;;9.07;8.25;;;;;;;;;;5046204;28;20033;-72
2024/01/23 00:24:41;;;;;;;11.25;8.60;;;;;;;;;;5047794;28;20037;-73
2024/01/23 00:27:08;;;;;;;9.90;7.82;;;;;;;;;;4990055;28;20124;-73
2024/01/23 00:29:35;;;;;;;7.55;6.80;;;;;;;;;;5029214;28;20041;-72
2024/01/23 00:32:01;;;;;;;6.13;5.55;;;;;;;;;;5045924;28;20162;-75
2024/01/23 00:34:30;;;;;;;8.90;8.00;;;;;;;;;;5045188;28;20064;-73
2024/01/23 00:36:58;;;;;;;8.25;7.38;;;;;;;;;;5028258;28;20708;-72
2024/01/23 00:39:24;;;;;;;8.43;7.60;;;;;;;;;;5012095;28;20032;-73
2024/01/23 00:41:50;;;;;;;5.78;5.22;;;;;;;;;;5028508;28;20571;-73
2024/01/23 00:44:16;;;;;;;7.10;6.32;;;;;;;;;;5046011;28;20033;-73
2024/01/23 00:46:42;;;;;;;6.70;6.10;;;;;;;;;;5032207;28;20037;-73
2024/01/23 00:49:08;;;;;;;5.78;5.30;;;;;;;;;;5034852;28;20033;-71
2024/01/23 00:51:34;;;;;;;9.55;8.52;;;;;;;;;;5047824;28;20503;-73
2024/01/23 00:54:00;;;;;;;9.25;6.85;;;;;;;;;;5027372;28;20037;-75
2024/01/23 00:56:26;;;;;;;7.47;6.78;;;;;;;;;;5032591;28;20038;-73
2024/01/23 00:58:52;;;;;;;12.93;10.85;;;;;;;;;;5012762;28;20055;-73
2024/01/23 01:01:17;;;;;;;9.07;8.13;;;;;;;;;;5012463;28;20036;-72
2024/01/23 01:03:43;;;;;;;9.75;8.23;;;;;;;;;;5029672;28;20036;-73
2024/01/23 01:06:09;;;;;;;6.10;5.50;;;;;;;;;;5009233;28;20213;-74
2024/01/23 01:08:35;;;;;;;12.40;7.95;;;;;;;;;;5049858;28;20036;-73
2024/01/23 01:11:01;;;;;;;9.90;7.10;;;;;;;;;;5049476;28;20033;-74
2024/01/23 01:13:27;;;;;;;11.77;8.65;;;;;;;;;;5049631;28;20415;-74
2024/01/23 01:15:53;;;;;;;9.40;8.50;;;;;;;;;;5050865;28;20745;-73
2024/01/23 01:18:18;;;;;;;9.18;7.70;;;;;;;;;;5049841;28;20494;-73
2024/01/23 01:20:44;;;;;;;9.45;8.43;;;;;;;;;;5031744;28;20037;-73
2024/01/23 01:23:10;;;;;;;8.98;7.30;;;;;;;;;;5049378;28;20475;-73
2024/01/23 01:25:36;;;;;;;10.02;9.15;;;;;;;;;;5049740;28;20661;-72
2024/01/23 01:28:03;;;;;;;10.13;8.55;;;;;;;;;;5050297;28;20033;-73
2024/01/23 01:30:32;;;;;;;6.95;6.35;;;;;;;;;;5051029;28;20025;-73
2024/01/23 01:32:58;;;;;;;9.05;8.15;;;;;;;;;;5032073;28;20036;-73
2024/01/23 01:35:24;;;;;;;11.70;9.10;;;;;;;;;;5008777;28;20438;-73
2024/01/23 01:37:50;;;;;;;6.93;5.88;;;;;;;;;;5049428;28;20045;-73
2024/01/23 01:40:16;;;;;;;6.28;5.70;;;;;;;;;;5050156;28;20170;-73
2024/01/23 01:42:43;;;;;;;12.38;10.18;;;;;;;;;;5033137;28;20032;-75
2024/01/23 01:45:10;;;;;;;10.90;8.55;;;;;;;;;;5049782;28;20037;-73
2024/01/23 01:47:36;;;;;;;9.45;7.32;;;;;;;;;;5050034;28;20386;-73
2024/01/23 01:50:03;;;;;;;8.95;7.97;;;;;;;;;;5012695;28;20076;-74
2024/01/23 01:52:30;;;;;;;7.60;6.90;;;;;;;;;;5032595;28;20028;-75
2024/01/23 01:54:56;;;;;;;12.18;7.72;;;;;;;;;;5032370;28;20542;-72
2024/01/23 01:57:22;;;;;;;10.25;9.20;;;;;;;;;;5033048;28;20029;-72
2024/01/23 01:59:48;;;;;;;11.02;8.45;;;;;;;;;;5050476;28;20067;-73
2024/01/23 02:02:14;;;;;;;10.18;6.55;;;;;;;;;;5030465;28;20031;-73
2024/01/23 02:04:40;;;;;;;9.05;5.93;;;;;;;;;;5048962;28;20388;-72
2024/01/23 02:07:06;;;;;;;12.30;7.80;;;;;;;;;;5049193;28;20033;-73
2024/01/23 02:09:32;;;;;;;11.98;6.85;;;;;;;;;;5030324;28;20033;-73
2024/01/23 02:11:58;;;;;;;10.65;9.55;;;;;;;;;;5048704;28;20122;-73
2024/01/23 02:14:30;;;;;;;10.45;9.10;;;;;;;;;;5042099;28;20063;-73
2024/01/23 02:16:56;;;;;;;9.45;7.13;;;;;;;;;;5029966;28;20024;-73
2024/01/23 02:19:42;;;;;;;15.27;8.77;;;;;;;;;;5033466;28;20421;-74
2024/01/23 02:22:08;;;;;;;10.63;8.80;;;;;;;;;;5031343;28;20127;-73
2024/01/23 02:24:35;;;;;;;18.83;11.05;;;;;;;;;;5052074;28;20251;-73
2024/01/23 02:27:01;;;;;;;7.53;6.80;;;;;;;;;;5033528;28;20586;-74
2024/01/23 02:29:26;;;;;;;12.43;9.40;;;;;;;;;;5031151;28;20086;-73
2024/01/23 02:31:52;;;;;;;10.52;8.15;;;;;;;;;;5031700;28;20132;-73
2024/01/23 02:34:21;;;;;;;8.48;7.40;;;;;;;;;;5030511;28;20033;-73
2024/01/23 02:36:47;;;;;;;9.95;8.00;;;;;;;;;;5031649;28;20064;-73
2024/01/23 02:39:12;;;;;;;10.48;6.95;;;;;;;;;;5037231;28;20489;-72
2024/01/23 02:41:38;;;;;;;12.80;10.13;;;;;;;;;;5030651;28;20680;-72
2024/01/23 02:44:04;;;;;;;14.57;9.93;;;;;;;;;;5047866;28;20040;-72
2024/01/23 02:46:30;;;;;;;7.88;5.78;;;;;;;;;;5047976;28;20174;-73
2024/01/23 02:48:56;;;;;;;15.27;10.75;;;;;;;;;;5048153;28;20041;-73
2024/01/23 02:51:22;;;;;;;11.45;9.50;;;;;;;;;;5048505;28;20036;-72
2024/01/23 02:53:48;;;;;;;13.05;10.05;;;;;;;;;;5030183;28;20033;-72
2024/01/23 02:56:14;;;;;;;10.20;9.05;;;;;;;;;;5029949;28;20047;-72
2024/01/23 02:58:40;;;;;;;8.52;7.70;;;;;;;;;;5013426;28;20025;-73
2024/01/23 03:01:06;;;;;;;13.68;10.45;;;;;;;;;;5047235;28;20033;-72
2024/01/23 03:03:31;;;;;;;10.45;8.93;;;;;;;;;;5029000;28;20041;-73
2024/01/23 03:05:57;;;;;;;13.73;9.25;;;;;;;;;;5048088;28;20036;-72
2024/01/23 03:08:23;;;;;;;7.97;7.18;;;;;;;;;;5040015;28;20025;-73
2024/01/23 03:10:49;;;;;;;11.60;8.70;;;;;;;;;;5029629;28;20025;-72
2024/01/23 03:13:15;;;;;;;12.23;8.45;;;;;;;;;;5047573;28;20033;-72
2024/01/23 03:15:41;;;;;;;12.13;10.18;;;;;;;;;;5031040;28;20537;-72
2024/01/23 03:18:07;;;;;;;9.43;7.78;;;;;;;;;;5028044;28;20024;-72
2024/01/23 03:20:34;;;;;;;12.70;8.93;;;;;;;;;;5027924;28;20047;-73
2024/01/23 03:23:00;;;;;;;10.82;8.25;;;;;;;;;;5029420;28;20453;-73
2024/01/23 03:25:26;;;;;;;7.85;7.03;;;;;;;;;;5012788;28;20047;-73
2024/01/23 03:27:52;;;;;;;13.07;8.65;;;;;;;;;;5046894;28;20040;-73
2024/01/23 03:30:28;;;;;;;14.85;11.77;;;;;;;;;;5044939;28;21406;-73
2024/01/23 03:32:54;;;;;;;16.67;10.73;;;;;;;;;;5029868;28;20828;-72
2024/01/23 03:35:20;;;;;;;14.70;10.20;;;;;;;;;;5047971;28;20044;-73
2024/01/23 03:37:46;;;;;;;12.25;9.82;;;;;;;;;;5028759;28;20048;-72
2024/01/23 03:40:12;;;;;;;13.32;9.70;;;;;;;;;;5027858;28;20060;-72
2024/01/23 03:42:38;;;;;;;12.75;10.00;;;;;;;;;;5045924;28;20033;-72
2024/01/23 03:45:05;;;;;;;13.80;9.15;;;;;;;;;;5046690;28;20558;-72
2024/01/23 03:47:31;;;;;;;12.25;10.88;;;;;;;;;;5048482;28;20063;-72
2024/01/23 03:49:57;;;;;;;15.85;14.00;;;;;;;;;;5046784;28;20033;-72
2024/01/23 03:52:23;;;;;;;11.88;8.02;;;;;;;;;;5007947;28;20446;-72
2024/01/23 03:54:49;;;;;;;11.00;8.13;;;;;;;;;;5042425;28;20053;-71
2024/01/23 03:57:15;;;;;;;13.82;9.05;;;;;;;;;;5046384;28;20520;-71
2024/01/23 03:59:49;;;;;;;16.92;11.25;;;;;;;;;;5028384;28;20052;-72
2024/01/23 04:02:15;;;;;;;16.08;11.77;;;;;;;;;;5045752;28;20186;-72
2024/01/23 04:04:41;;;;;;;11.85;9.52;;;;;;;;;;5025761;28;20064;-72
2024/01/23 04:07:07;;;;;;;12.82;9.77;;;;;;;;;;5046540;28;20068;-72
2024/01/23 04:09:33;;;;;;;18.27;12.50;;;;;;;;;;5028834;28;20059;-72
2024/01/23 04:11:59;;;;;;;15.90;10.30;;;;;;;;;;5029458;28;20526;-72
2024/01/23 04:14:25;;;;;;;11.55;8.70;;;;;;;;;;5047871;28;20112;-72
2024/01/23 04:16:50;;;;;;;12.60;8.77;;;;;;;;;;5046611;28;20379;-72
2024/01/23 04:19:16;;;;;;;14.05;12.45;;;;;;;;;;5047044;28;20040;-72
2024/01/23 04:21:42;;;;;;;16.90;10.80;;;;;;;;;;5028040;28;20158;-72
2024/01/23 04:24:08;;;;;;;18.10;12.88;;;;;;;;;;5045766;28;20029;-73
2024/01/23 04:26:34;;;;;;;13.40;9.45;;;;;;;;;;5046338;28;20510;-73
2024/01/23 04:29:00;;;;;;;12.25;9.93;;;;;;;;;;5057682;28;20075;-73
2024/01/23 04:31:26;;;;;;;15.63;11.38;;;;;;;;;;5037310;28;20387;-75
2024/01/23 04:33:53;;;;;;;17.30;11.93;;;;;;;;;;5048798;28;20476;-75
2024/01/23 04:36:19;;;;;;;16.45;11.48;;;;;;;;;;5046988;28;20164;-75
2024/01/23 04:38:45;;;;;;;12.55;8.30;;;;;;;;;;5047387;28;20029;-75
2024/01/23 04:41:11;;;;;;;18.60;11.38;;;;;;;;;;5050264;28;20630;-75
2024/01/23 04:43:38;;;;;;;11.15;8.48;;;;;;;;;;5014021;28;20072;-75
2024/01/23 04:46:05;;;;;;;17.92;11.32;;;;;;;;;;5045017;28;20094;-72
2024/01/23 04:48:31;;;;;;;23.58;16.88;;;;;;;;;;5051640;28;20035;-73
2024/01/23 04:50:57;;;;;;;18.10;12.95;;;;;;;;;;5031954;28;20380;-73
2024/01/23 04:53:27;;;;;;;15.55;12.98;;;;;;;;;;5035720;28;20082;-74
2024/01/23 04:55:54;;;;;;;18.88;13.35;;;;;;;;;;5032935;28;20045;-73
2024/01/23 04:58:19;;;;;;;11.18;8.93;;;;;;;;;;5010640;28;20041;-73
2024/01/23 05:00:45;;;;;;;21.25;12.73;;;;;;;;;;5049539;28;20094;-74
2024/01/23 05:03:11;;;;;;;16.25;12.55;;;;;;;;;;5031187;28;20033;-72
2024/01/23 05:05:37;;;;;;;21.10;12.20;;;;;;;;;;5033975;28;20554;-73
2024/01/23 05:08:03;;;;;;;17.48;12.98;;;;;;;;;;5049299;28;20087;-72
2024/01/23 05:10:29;;;;;;;17.95;11.60;;;;;;;;;;5050446;28;20041;-73
2024/01/23 05:12:55;;;;;;;17.08;11.75;;;;;;;;;;5030718;28;20037;-73
2024/01/23 05:15:21;;;;;;;15.88;12.30;;;;;;;;;;5049437;28;20495;-73
2024/01/23 05:17:47;;;;;;;23.45;12.63;;;;;;;;;;5050948;28;20495;-73
2024/01/23 05:20:13;;;;;;;15.73;11.68;;;;;;;;;;5048810;28;20033;-74
2024/01/23 05:22:39;;;;;;;20.85;12.43;;;;;;;;;;5033128;28;20534;-72
2024/01/23 05:25:05;;;;;;;17.00;11.77;;;;;;;;;;5049132;28;20040;-73
2024/01/23 05:27:31;;;;;;;18.75;14.15;;;;;;;;;;5049466;28;20029;-73
2024/01/23 05:29:56;;;;;;;16.17;12.68;;;;;;;;;;5049488;28;20044;-73
2024/01/23 05:32:22;;;;;;;17.73;10.20;;;;;;;;;;5049088;28;20052;-74
2024/01/23 05:34:48;;;;;;;19.52;13.25;;;;;;;;;;5050475;28;20037;-74
2024/01/23 05:37:14;;;;;;;16.13;11.00;;;;;;;;;;5048785;28;20064;-73
2024/01/23 05:39:40;;;;;;;19.50;13.70;;;;;;;;;;5048801;28;20064;-74
2024/01/23 05:42:06;;;;;;;18.88;14.80;;;;;;;;;;5030971;28;20028;-73
2024/01/23 05:44:32;;;;;;;16.58;12.57;;;;;;;;;;5043798;28;21066;-74
2024/01/23 05:46:58;;;;;;;18.02;12.43;;;;;;;;;;5046517;28;20127;-73
2024/01/23 05:49:24;;;;;;;21.30;14.13;;;;;;;;;;5028920;28;20112;-74
2024/01/23 05:51:50;;;;;;;21.05;12.45;;;;;;;;;;5027665;28;20094;-75
2024/01/23 05:54:16;;;;;;;16.52;9.40;;;;;;;;;;5046001;28;20550;-74
2024/01/23 05:56:41;;;;;;;17.02;14.05;;;;;;;;;;5047189;28;20144;-74
2024/01/23 05:59:07;;;;;;;17.67;12.02;;;;;;;;;;5028685;28;20067;-74
2024/01/23 06:01:33;;;;;;;18.95;14.05;;;;;;;;;;5047172;28;20069;-74
2024/01/23 06:03:59;;;;;;;21.55;15.43;;;;;;;;;;5030854;28;20056;-75
2024/01/23 06:06:25;;;;;;;21.42;13.80;;;;;;;;;;5027987;28;20040;-73
2024/01/23 06:08:51;;;;;;;20.83;13.10;;;;;;;;;;5046215;28;20087;-74
2024/01/23 06:11:19;;;;;;;23.67;16.70;;;;;;;;;;5028351;28;20199;-74
2024/01/23 06:13:45;;;;;;;13.45;9.70;;;;;;;;;;5030278;28;20064;-74
2024/01/23 06:16:11;;;;;;;21.33;15.77;;;;;;;;;;5046380;28;20076;-74
2024/01/23 06:18:37;;;;;;;18.10;13.48;;;;;;;;;;5049969;28;20065;-73
2024/01/23 06:21:06;;;;;;;22.70;14.98;;;;;;;;;;5022285;28;20122;-73
2024/01/23 06:23:32;;;;;;;19.45;14.95;;;;;;;;;;5028062;28;20033;-76
2024/01/23 06:25:58;;;;;;;23.27;14.68;;;;;;;;;;5046542;28;20446;-73
2024/01/23 06:28:24;;;;;;;27.30;15.23;;;;;;;;;;5027625;28;20033;-74
2024/01/23 06:30:50;;;;;;;21.95;14.93;;;;;;;;;;5045723;28;20044;-74
2024/01/23 06:33:16;;;;;;;16.95;10.80;;;;;;;;;;5044828;28;20033;-73
2024/01/23 06:35:42;;;;;;;22.20;15.80;;;;;;;;;;5011375;28;20129;-73
2024/01/23 06:38:10;;;;;;;18.75;14.70;;;;;;;;;;5045252;28;20175;-73
2024/01/23 06:40:36;;;;;;;17.75;11.57;;;;;;;;;;5045974;28;20029;-73
2024/01/23 06:43:02;;;;;;;18.73;13.05;;;;;;;;;;5045619;28;20403;-73
2024/01/23 06:45:28;;;;;;;20.48;14.25;;;;;;;;;;5027623;28;20044;-73
2024/01/23 06:47:54;;;;;;;12.13;8.50;;;;;;;;;;5043320;28;20087;-71
2024/01/23 06:50:20;;;;;;;15.45;12.02;;;;;;;;;;5026839;28;20125;-72
2024/01/23 06:52:46;;;;;;;9.93;7.07;;;;;;;;;;5046350;28;20072;-71
2024/01/23 06:55:12;;;;;;;16.77;12.85;;;;;;;;;;5011113;28;20516;-72
2024/01/23 06:57:38;;;;;;;23.00;15.43;;;;;;;;;;5026799;28;20822;-72
2024/01/23 07:00:05;;;;;;;14.43;11.98;;;;;;;;;;5027455;28;20037;-71
2024/01/23 07:02:31;;;;;;;22.00;15.38;;;;;;;;;;5027726;28;20403;-72
2024/01/23 07:04:57;;;;;;;15.07;10.68;;;;;;;;;;5028594;28;20048;-72
2024/01/23 07:07:22;;;;;;;17.38;13.95;;;;;;;;;;5044601;28;20453;-71
2024/01/23 07:09:48;;;;;;;23.48;16.42;;;;;;;;;;5045073;28;20051;-72
2024/01/23 07:12:16;;;;;;;19.27;12.73;;;;;;;;;;5045854;28;20079;-72
2024/01/23 07:14:42;;;;;;;18.83;12.60;;;;;;;;;;5046088;28;20663;-72
2024/01/23 07:17:08;;;;;;;15.43;10.75;;;;;;;;;;5047246;28;20060;-72
2024/01/23 07:19:35;;;;;;;31.20;17.55;;;;;;;;;;5027485;28;20044;-71
2024/01/23 07:22:01;;;;;;;19.02;13.68;;;;;;;;;;4996379;28;20160;-72
2024/01/23 07:24:27;;;;;;;19.40;13.77;;;;;;;;;;5044172;28;20457;-71
2024/01/23 07:26:53;;;;;;;16.13;11.20;;;;;;;;;;5028303;28;20448;-72
2024/01/23 07:29:18;;;;;;;27.70;18.85;;;;;;;;;;5045611;28;20128;-71
2024/01/23 07:31:45;;;;;;;19.42;10.77;;;;;;;;;;5046077;28;20531;-71
2024/01/23 07:34:10;;;;;;;21.77;13.80;;;;;;;;;;5045962;28;20033;-72
2024/01/23 07:36:36;;;;;;;16.15;12.02;;;;;;;;;;5027112;28;20061;-72
2024/01/23 07:39:03;;;;;;;20.15;14.65;;;;;;;;;;5046168;28;20128;-72
2024/01/23 07:41:28;;;;;;;27.30;15.02;;;;;;;;;;5028317;28;20040;-71
2024/01/23 07:43:54;;;;;;;25.42;17.38;;;;;;;;;;5046025;28;20036;-71
2024/01/23 07:46:22;;;;;;;25.73;17.60;;;;;;;;;;5027515;28;20037;-72
2024/01/23 07:48:48;;;;;;;26.98;17.70;;;;;;;;;;5028113;28;20033;-73
2024/01/23 07:51:14;;;;;;;17.05;13.15;;;;;;;;;;5046489;28;20037;-73
2024/01/23 07:53:43;;;;;;;23.13;13.40;;;;;;;;;;5046355;28;20033;-73
2024/01/23 07:56:09;;;;;;;20.48;14.50;;;;;;;;;;5029030;28;20127;-72
2024/01/23 07:58:40;;;;;;;25.08;16.65;;;;;;;;;;5031933;28;20472;-71
2024/01/23 08:01:06;;;;;;;17.85;11.88;;;;;;;;;;5048696;28;20123;-71
2024/01/23 08:03:32;;;;;;;21.33;16.10;;;;;;;;;;5047570;28;20033;-71
2024/01/23 08:05:59;;;;;;;21.38;13.13;;;;;;;;;;5019872;28;20059;-71
2024/01/23 08:08:25;;;;;;;18.52;11.05;;;;;;;;;;5053959;28;20059;-72
2024/01/23 08:10:51;;;;;;;19.77;14.80;;;;;;;;;;5049854;28;20119;-72
2024/01/23 08:13:20;;;;;;;24.90;17.10;;;;;;;;;;5047103;28;20064;-72
2024/01/23 08:15:47;;;;;;;27.20;17.10;;;;;;;;;;5034274;28;20052;-73
2024/01/23 08:18:13;;;;;;;27.70;17.38;;;;;;;;;;5059096;28;20039;-73
2024/01/23 08:20:42;;;;;;;28.05;17.08;;;;;;;;;;5042054;28;20064;-74
2024/01/23 08:23:08;;;;;;;20.73;12.23;;;;;;;;;;5044589;28;20033;-76
2024/01/23 08:25:34;;;;;;;17.73;11.18;;;;;;;;;;5060638;28;20044;-75
2024/01/23 08:28:00;;;;;;;19.30;14.43;;;;;;;;;;5042537;28;20036;-74
2024/01/23 08:30:25;;;;;;;18.85;11.98;;;;;;;;;;5059787;28;20032;-74
2024/01/23 08:32:51;;;;;;;23.63;16.98;;;;;;;;;;5021449;28;20029;-74
2024/01/23 08:35:17;;;;;;;28.42;20.55;;;;;;;;;;5049319;28;20087;-75
2024/01/23 08:37:43;;;;;;;19.70;13.85;;;;;;;;;;5048700;28;20087;-75
2024/01/23 08:40:09;;;;;;;24.35;16.50;;;;;;;;;;5049919;28;20043;-75
2024/01/23 08:42:35;;;;;;;21.70;14.55;;;;;;;;;;5049378;28;20037;-74
2024/01/23 08:45:04;;;;;;;17.00;12.25;;;;;;;;;;5049605;28;20072;-75
2024/01/23 08:47:31;;;;;;;26.45;16.10;;;;;;;;;;5049128;28;20123;-75
2024/01/23 08:49:57;;;;;;;22.20;15.50;;;;;;;;;;5032869;28;20120;-74
2024/01/23 08:52:22;;;;;;;21.35;13.57;;;;;;;;;;5034182;28;20044;-75
2024/01/23 08:54:49;;;;;;;24.23;16.70;;;;;;;;;;5051853;28;20550;-74
2024/01/23 08:57:18;;;;;;;14.57;10.55;;;;;;;;;;5051707;28;20029;-74
2024/01/23 08:59:45;;;;;;;20.73;15.15;;;;;;;;;;5033803;28;20048;-75
2024/01/23 09:02:13;;;;;;;17.85;12.25;;;;;;;;;;5051761;28;20036;-75
2024/01/23 09:04:39;;;;;;;21.20;15.23;;;;;;;;;;5033908;28;20140;-74
2024/01/23 09:07:05;;;;;;;18.00;11.38;;;;;;;;;;5033614;28;20033;-75
2024/01/23 09:09:30;;;;;;;21.90;12.93;;;;;;;;;;5033262;28;20102;-75
2024/01/23 09:11:56;;;;;;;30.58;17.25;;;;;;;;;;5034100;28;20489;-75
2024/01/23 09:14:22;;;;;;;24.10;15.93;;;;;;;;;;5033802;28;20132;-75
2024/01/23 09:16:49;;;;;;;17.38;11.60;;;;;;;;;;5033559;28;20051;-75
2024/01/23 09:19:15;;;;;;;29.25;17.55;;;;;;;;;;5017267;28;20032;-74
2024/01/23 09:21:41;;;;;;;21.42;14.57;;;;;;;;;;5051061;28;20124;-74
2024/01/23 09:24:07;;;;;;;22.85;14.70;;;;;;;;;;5017195;28;20056;-75
2024/01/23 09:26:34;;;;;;;28.02;17.02;;;;;;;;;;5032951;28;20518;-74
2024/01/23 09:29:01;;;;;;;24.23;16.20;;;;;;;;;;5033699;28;20033;-75
2024/01/23 09:31:27;;;;;;;25.67;15.82;;;;;;;;;;5050793;28;20043;-75
2024/01/23 09:33:54;;;;;;;19.73;13.25;;;;;;;;;;5033418;28;20056;-74
2024/01/23 09:36:20;;;;;;;27.83;16.33;;;;;;;;;;5050728;28;20037;-75
2024/01/23 09:38:46;;;;;;;22.95;14.48;;;;;;;;;;5051192;28;20079;-75
2024/01/23 09:41:12;;;;;;;23.95;16.10;;;;;;;;;;5033166;28;20041;-75
2024/01/23 09:43:42;;;;;;;21.55;15.05;;;;;;;;;;5050469;28;20033;-74
2024/01/23 09:46:11;;;;;;;20.90;12.85;;;;;;;;;;5033223;28;20039;-75
2024/01/23 09:48:37;;;;;;;21.83;13.77;;;;;;;;;;5050896;28;20037;-75
2024/01/23 09:51:03;;;;;;;26.20;19.33;;;;;;;;;;5051147;28;20040;-75
2024/01/23 09:53:29;;;;;;;14.05;8.52;;;;;;;;;;5050837;28;20543;-75
2024/01/23 09:55:55;;;;;;;21.38;13.32;;;;;;;;;;5033231;28;20120;-75
2024/01/23 09:58:21;;;;;;;17.67;12.18;;;;;;;;;;5052104;28;20181;-74
2024/01/23 10:00:47;;;;;;;19.10;11.32;;;;;;;;;;4984832;28;20198;-75
2024/01/23 10:03:13;;;;;;;17.63;12.38;;;;;;;;;;5009926;28;20069;-74
2024/01/23 10:05:39;;;;;;;19.00;13.90;;;;;;;;;;5013252;28;20026;-74
2024/01/23 10:08:05;;;;;;;24.75;15.45;;;;;;;;;;5014395;28;20045;-74
2024/01/23 10:10:31;;;;;;;21.80;15.35;;;;;;;;;;5030475;28;20034;-75
2024/01/23 10:12:57;;;;;;;26.75;17.60;;;;;;;;;;4996660;28;20049;-74
2024/01/23 10:15:22;;;;;;;23.77;12.43;;;;;;;;;;5012587;28;20037;-75
2024/01/23 10:17:48;;;;;;;24.63;17.30;;;;;;;;;;5030610;28;20511;-74
2024/01/23 10:20:14;;;;;;;16.98;12.80;;;;;;;;;;5030533;28;20527;-75
2024/01/23 10:22:40;;;;;;;24.27;16.58;;;;;;;;;;5012410;28;20033;-75
2024/01/23 10:25:10;;;;;;;17.83;14.00;;;;;;;;;;5029981;28;20052;-74
2024/01/23 10:27:36;;;;;;;17.55;10.75;;;;;;;;;;5029964;28;20124;-75
2024/01/23 10:30:02;;;;;;;18.13;11.98;;;;;;;;;;5012221;28;20125;-75
2024/01/23 10:32:30;;;;;;;22.95;13.65;;;;;;;;;;5030004;28;20642;-75
2024/01/23 10:34:56;;;;;;;28.75;18.17;;;;;;;;;;5030670;28;20041;-75
2024/01/23 10:37:22;;;;;;;23.05;15.35;;;;;;;;;;5030578;28;20064;-76
2024/01/23 10:39:48;;;;;;;19.88;15.45;;;;;;;;;;5013394;28;20030;-75
2024/01/23 10:42:15;;;;;;;17.15;12.38;;;;;;;;;;5031157;28;20033;-74
2024/01/23 10:44:40;;;;;;;16.42;11.50;;;;;;;;;;5030023;28;20037;-75
2024/01/23 10:47:07;;;;;;;18.52;13.48;;;;;;;;;;5013292;28;20045;-75
2024/01/23 10:49:33;;;;;;;17.63;11.15;;;;;;;;;;5031583;28;20451;-75
2024/01/23 10:52:02;;;;;;;15.77;11.75;;;;;;;;;;5031755;28;20041;-75
2024/01/23 10:54:30;;;;;;;26.75;20.02;;;;;;;;;;4999690;28;20045;-74
2024/01/23 10:56:56;;;;;;;16.75;13.80;;;;;;;;;;5042658;28;20041;-74
2024/01/23 10:59:27;;;;;;;25.13;17.92;;;;;;;;;;5023888;28;20033;-74
2024/01/23 11:01:56;;;;;;;22.67;14.77;;;;;;;;;;5032792;28;20069;-75
2024/01/23 11:04:22;;;;;;;24.02;17.40;;;;;;;;;;5031146;28;20034;-74
2024/01/23 11:06:52;;;;;;;18.13;13.57;;;;;;;;;;5012618;28;20091;-75
2024/01/23 11:09:37;;;;;;;15.98;13.23;;;;;;;;;;5012656;28;20652;-74
2024/01/23 11:12:05;;;;;;;21.75;14.05;;;;;;;;;;5012006;28;20059;-74
2024/01/23 11:14:36;;;;;;;20.05;15.68;;;;;;;;;;5011635;28;20040;-75
2024/01/23 11:17:06;;;;;;;17.77;12.15;;;;;;;;;;5011910;28;20436;-74
2024/01/23 11:19:44;;;;;;;20.00;15.93;;;;;;;;;;4995497;28;20037;-75
2024/01/23 11:22:10;;;;;;;24.85;15.93;;;;;;;;;;4996431;28;20033;-75
2024/01/23 11:24:43;;;;;;;18.98;14.18;;;;;;;;;;5029361;28;20040;-75
2024/01/23 11:27:17;;;;;;;20.27;12.27;;;;;;;;;;5012040;28;20045;-75
2024/01/23 11:29:44;;;;;;;24.13;16.90;;;;;;;;;;5011819;28;20037;-74
2024/01/23 11:32:18;;;;;;;17.50;11.48;;;;;;;;;;5029638;28;20064;-75
2024/01/23 11:34:44;;;;;;;22.67;13.43;;;;;;;;;;5029833;28;20099;-74
2024/01/23 11:37:42;;;;;;;23.92;18.25;;;;;;;;;;5030424;28;20497;-75
2024/01/23 11:40:29;;;;;;;21.35;14.15;;;;;;;;;;5012825;28;20427;-75
2024/01/23 11:43:14;;;;;;;18.85;11.93;;;;;;;;;;5024860;28;20053;-74
2024/01/23 11:45:40;;;;;;;21.13;13.60;;;;;;;;;;5004514;28;20045;-75
2024/01/23 11:48:06;;;;;;;15.18;11.85;;;;;;;;;;5033423;28;20029;-75
2024/01/23 11:50:33;;;;;;;18.48;11.90;;;;;;;;;;5019471;28;20048;-75
2024/01/23 11:53:00;;;;;;;27.30;16.45;;;;;;;;;;5006456;28;20033;-74
2024/01/23 11:55:25;;;;;;;17.27;11.57;;;;;;;;;;4986706;28;20148;-74
2024/01/23 11:57:55;;;;;;;20.92;13.00;;;;;;;;;;5037470;28;20034;-74
2024/01/23 12:00:22;;;;;;;26.95;17.23;;;;;;;;;;5038640;28;20033;-75
2024/01/23 12:02:48;;;;;;;25.27;17.42;;;;;;;;;;5050636;28;20067;-75
2024/01/23 12:05:14;;;;;;;19.20;13.63;;;;;;;;;;5001121;28;20043;-75
2024/01/23 12:07:41;;;;;;;19.50;13.57;;;;;;;;;;5049498;28;20033;-75
2024/01/23 12:10:08;;;;;;;17.80;10.75;;;;;;;;;;5030909;28;20029;-74
2024/01/23 12:12:36;;;;;;;24.23;16.70;;;;;;;;;;5014955;28;20037;-75
2024/01/23 12:15:04;;;;;;;23.40;14.15;;;;;;;;;;5048853;28;20049;-75
2024/01/23 12:17:34;;;;;;;15.32;9.68;;;;;;;;;;5031057;28;20033;-75
2024/01/23 12:20:04;;;;;;;21.90;13.00;;;;;;;;;;5014323;28;20087;-75
2024/01/23 12:22:30;;;;;;;19.58;12.20;;;;;;;;;;5030500;28;20029;-75
2024/01/23 12:25:03;;;;;;;21.77;15.13;;;;;;;;;;5030515;28;20495;-75
2024/01/23 12:27:32;;;;;;;18.42;13.20;;;;;;;;;;5030881;28;20037;-75
2024/01/23 12:29:58;;;;;;;23.35;13.32;;;;;;;;;;5030987;28;20029;-75
2024/01/23 12:32:27;;;;;;;17.05;12.70;;;;;;;;;;4998675;28;20566;-74
2024/01/23 12:34:54;;;;;;;12.80;10.30;;;;;;;;;;5013994;28;20476;-74
2024/01/23 12:37:31;;;;;;;21.25;13.63;;;;;;;;;;5030356;28;20060;-74
2024/01/23 12:40:08;;;;;;;20.75;12.18;;;;;;;;;;5014270;28;20119;-75
2024/01/23 12:42:39;;;;;;;25.67;16.65;;;;;;;;;;5048125;28;20383;-75
2024/01/23 12:45:12;;;;;;;26.67;18.17;;;;;;;;;;5048026;28;20037;-74
2024/01/23 12:47:38;;;;;;;22.13;15.48;;;;;;;;;;5047889;28;20098;-75
2024/01/23 12:50:05;;;;;;;32.10;18.70;;;;;;;;;;5030650;28;20123;-75
2024/01/23 12:52:31;;;;;;;28.25;16.13;;;;;;;;;;5030543;28;20048;-74
2024/01/23 12:54:57;;;;;;;20.42;13.43;;;;;;;;;;5048354;28;20032;-74
2024/01/23 12:57:23;;;;;;;28.48;20.02;;;;;;;;;;5014351;28;20407;-75
2024/01/23 12:59:49;;;;;;;31.38;17.70;;;;;;;;;;5047587;28;20033;-74
2024/01/23 13:02:15;;;;;;;28.73;15.20;;;;;;;;;;5051561;28;20123;-74
2024/01/23 13:04:40;;;;;;;23.73;14.65;;;;;;;;;;5033807;28;20143;-74
2024/01/23 13:07:07;;;;;;;22.75;16.00;;;;;;;;;;5051736;28;20043;-75
2024/01/23 13:09:33;;;;;;;22.65;14.43;;;;;;;;;;5051664;28;20039;-75
2024/01/23 13:11:59;;;;;;;28.48;15.93;;;;;;;;;;5051677;28;20574;-74
2024/01/23 13:14:25;;;;;;;24.55;16.77;;;;;;;;;;5051606;28;20028;-74
2024/01/23 13:16:51;;;;;;;29.65;18.60;;;;;;;;;;5051244;28;20041;-75
2024/01/23 13:19:19;;;;;;;25.50;17.00;;;;;;;;;;5034086;28;20044;-74
2024/01/23 13:21:45;;;;;;;32.13;17.92;;;;;;;;;;5033425;28;20065;-74
2024/01/23 13:24:11;;;;;;;25.55;16.52;;;;;;;;;;5033478;28;20381;-75
2024/01/23 13:26:37;;;;;;;21.67;13.77;;;;;;;;;;5033545;28;20078;-75
2024/01/23 13:29:08;;;;;;;25.85;14.25;;;;;;;;;;5051536;28;20033;-75
2024/01/23 13:31:35;;;;;;;24.92;16.23;;;;;;;;;;5051550;28;20093;-74
2024/01/23 13:34:02;;;;;;;32.78;20.45;;;;;;;;;;5034137;28;20259;-74
2024/01/23 13:36:28;;;;;;;18.00;13.27;;;;;;;;;;5016907;28;20045;-74
2024/01/23 13:38:54;;;;;;;25.85;13.98;;;;;;;;;;5051703;28;20056;-75
2024/01/23 13:41:20;;;;;;;15.40;11.50;;;;;;;;;;5052129;28;20025;-74
2024/01/23 13:43:46;;;;;;;29.08;18.83;;;;;;;;;;5061374;28;20152;-74
2024/01/23 13:46:11;;;;;;;26.17;19.10;;;;;;;;;;5045206;28;20024;-75
2024/01/23 13:48:37;;;;;;;30.40;16.20;;;;;;;;;;5035896;28;20032;-74
2024/01/23 13:51:03;;;;;;;15.82;9.75;;;;;;;;;;5020669;28;20124;-75
2024/01/23 13:53:30;;;;;;;25.67;14.65;;;;;;;;;;5034386;28;20029;-74
2024/01/23 13:55:56;;;;;;;33.03;19.98;;;;;;;;;;5033931;28;20101;-75
2024/01/23 13:58:22;;;;;;;30.10;15.65;;;;;;;;;;5033090;28;20025;-74
2024/01/23 14:00:48;;;;;;;22.77;16.00;;;;;;;;;;4996740;28;20037;-74
2024/01/23 14:03:13;;;;;;;26.52;15.23;;;;;;;;;;5031349;28;20385;-74
2024/01/23 14:05:40;;;;;;;20.55;14.88;;;;;;;;;;4996565;28;20069;-75
2024/01/23 14:08:06;;;;;;;37.53;22.63;;;;;;;;;;5015620;28;20459;-79
2024/01/23 14:10:32;;;;;;;31.45;19.52;;;;;;;;;;5031584;28;20043;-75
2024/01/23 14:12:58;;;;;;;27.67;15.68;;;;;;;;;;5012176;28;20021;-74
2024/01/23 14:15:24;;;;;;;33.33;18.02;;;;;;;;;;5013101;28;20072;-75
2024/01/23 14:17:50;;;;;;;35.53;21.35;;;;;;;;;;4996728;28;20060;-74
2024/01/23 14:20:16;;;;;;;23.25;15.40;;;;;;;;;;4996464;28;20044;-75